createdAt,value
2018-03-06T00:00:06.647Z,8.30
2018-03-06T00:01:06.661Z,8.80
2018-03-06T00:02:06.675Z,8.60
2018-03-06T00:03:06.694Z,8.60
2018-03-06T00:04:06.709Z,8.80
2018-03-06T00:05:06.728Z,8.60
2018-03-06T00:06:06.741Z,8.60
2018-03-06T00:07:06.754Z,9.10
2018-03-06T00:08:06.772Z,8.50
2018-03-06T00:09:06.797Z,8.70
2018-03-06T00:10:06.801Z,8.80
2018-03-06T00:11:06.819Z,8.80
2018-03-06T00:12:06.836Z,8.50
2018-03-06T00:13:06.852Z,9.00
2018-03-06T00:14:06.869Z,9.10
2018-03-06T00:15:06.882Z,8.90
2018-03-06T00:16:06.900Z,9.30
2018-03-06T00:17:06.917Z,9.10
2018-03-06T00:18:06.929Z,8.40
2018-03-06T00:19:06.948Z,8.30
2018-03-06T00:20:06.963Z,9.50
2018-03-06T00:21:06.978Z,9.30
2018-03-06T00:22:06.992Z,9.30
2018-03-06T00:23:07.008Z,9.40
2018-03-06T00:24:07.026Z,9.20
2018-03-06T00:25:07.040Z,9.40
2018-03-06T00:26:07.056Z,8.90
2018-03-06T00:27:07.072Z,9.20
2018-03-06T00:28:07.090Z,9.20
2018-03-06T00:29:07.101Z,9.30
2018-03-06T00:30:07.119Z,9.60
2018-03-06T00:31:07.131Z,9.00
2018-03-06T00:32:07.150Z,8.90
2018-03-06T00:33:07.165Z,8.90
2018-03-06T00:34:07.181Z,9.50
2018-03-06T00:35:07.194Z,8.90
2018-03-06T00:36:07.214Z,8.90
2018-03-06T00:37:07.232Z,9.40
2018-03-06T00:38:07.244Z,10.00
2018-03-06T00:39:07.260Z,9.60
2018-03-06T00:40:07.273Z,9.80
2018-03-06T00:41:07.290Z,9.80
2018-03-06T00:42:07.310Z,9.70
2018-03-06T00:43:07.327Z,9.60
2018-03-06T00:44:07.344Z,9.70
2018-03-06T00:45:07.352Z,9.90
2018-03-06T00:46:07.369Z,9.60
2018-03-06T00:47:07.388Z,9.80
2018-03-06T00:48:07.401Z,9.60
2018-03-06T00:49:07.418Z,10.00
2018-03-06T00:50:07.433Z,9.80
2018-03-06T00:51:07.450Z,10.00
2018-03-06T00:52:07.464Z,9.30
2018-03-06T00:53:07.483Z,10.20
2018-03-06T00:54:07.498Z,10.30
2018-03-06T00:55:07.513Z,9.80
2018-03-06T00:56:07.529Z,10.10
2018-03-06T00:57:07.543Z,10.40
2018-03-06T00:58:07.559Z,10.20
2018-03-06T00:59:07.576Z,10.00
2018-03-06T01:00:07.596Z,10.50
2018-03-06T01:01:07.608Z,10.40
2018-03-06T01:02:07.624Z,10.50
2018-03-06T01:03:07.639Z,10.30
2018-03-06T01:04:07.652Z,10.20
2018-03-06T01:05:07.671Z,10.10
2018-03-06T01:06:07.689Z,11.00
2018-03-06T01:07:07.704Z,11.20
2018-03-06T01:08:07.717Z,10.50
2018-03-06T01:09:07.733Z,10.50
2018-03-06T01:10:07.749Z,11.10
2018-03-06T01:11:07.762Z,10.20
2018-03-06T01:12:07.783Z,10.40
2018-03-06T01:13:07.797Z,10.90
2018-03-06T01:14:07.810Z,10.90
2018-03-06T01:15:07.824Z,11.00
2018-03-06T01:16:07.847Z,11.10
2018-03-06T01:17:07.863Z,11.30
2018-03-06T01:18:07.876Z,11.50
2018-03-06T01:19:07.886Z,11.50
2018-03-06T01:20:07.902Z,11.70
2018-03-06T01:21:07.926Z,11.10
2018-03-06T01:22:07.937Z,11.80
2018-03-06T01:23:07.950Z,11.70
2018-03-06T01:24:07.964Z,12.10
2018-03-06T01:25:07.983Z,11.10
2018-03-06T01:26:07.999Z,12.00
2018-03-06T01:27:08.015Z,11.20
2018-03-06T01:28:08.028Z,11.70
2018-03-06T01:29:08.046Z,11.90
2018-03-06T01:30:08.062Z,12.80
2018-03-06T01:31:08.081Z,12.40
2018-03-06T01:32:08.090Z,11.80
2018-03-06T01:33:08.107Z,12.00
2018-03-06T01:34:08.123Z,12.10
2018-03-06T01:35:08.159Z,12.40
2018-03-06T01:36:08.155Z,12.80
2018-03-06T01:37:08.174Z,12.00
2018-03-06T01:38:08.185Z,12.10
2018-03-06T01:39:08.200Z,12.70
2018-03-06T01:40:08.217Z,12.20
2018-03-06T01:41:08.233Z,11.80
2018-03-06T01:42:08.249Z,12.20
2018-03-06T01:43:08.262Z,11.40
2018-03-06T01:44:08.279Z,11.60
2018-03-06T01:45:08.296Z,12.50
2018-03-06T01:46:08.315Z,11.40
2018-03-06T01:47:08.327Z,11.80
2018-03-06T01:48:08.344Z,11.90
2018-03-06T01:49:08.359Z,12.00
2018-03-06T01:50:08.374Z,11.90
2018-03-06T01:51:08.393Z,11.90
2018-03-06T01:52:08.403Z,11.90
2018-03-06T01:53:08.420Z,12.30
2018-03-06T01:54:08.454Z,11.70
2018-03-06T01:55:08.450Z,12.00
2018-03-06T01:56:08.469Z,12.30
2018-03-06T01:57:08.482Z,12.10
2018-03-06T01:58:08.497Z,12.10
2018-03-06T01:59:08.515Z,12.50
2018-03-06T02:00:08.530Z,12.10
2018-03-06T02:01:08.544Z,12.50
2018-03-06T02:02:08.565Z,13.00
2018-03-06T02:03:08.580Z,12.40
2018-03-06T02:04:08.592Z,12.50
2018-03-06T02:05:08.610Z,12.90
2018-03-06T02:06:08.626Z,12.50
2018-03-06T02:07:08.637Z,12.70
2018-03-06T02:08:08.655Z,12.20
2018-03-06T02:09:08.671Z,13.00
2018-03-06T02:10:08.686Z,12.50
2018-03-06T02:11:08.704Z,12.50
2018-03-06T02:12:08.720Z,11.70
2018-03-06T02:13:08.734Z,12.70
2018-03-06T02:14:08.753Z,12.60
2018-03-06T02:15:08.766Z,13.30
2018-03-06T02:16:08.779Z,13.70
2018-03-06T02:17:08.799Z,12.50
2018-03-06T02:18:08.812Z,13.20
2018-03-06T02:19:08.830Z,13.70
2018-03-06T02:20:08.843Z,14.00
2018-03-06T02:21:08.859Z,13.30
2018-03-06T02:22:08.879Z,13.70
2018-03-06T02:23:08.895Z,13.70
2018-03-06T02:24:08.912Z,13.70
2018-03-06T02:25:08.927Z,13.60
2018-03-06T02:26:08.955Z,13.60
2018-03-06T02:27:08.960Z,13.20
2018-03-06T02:28:08.970Z,12.70
2018-03-06T02:29:08.989Z,13.80
2018-03-06T02:30:09.019Z,13.30
2018-03-06T02:31:09.020Z,14.30
2018-03-06T02:32:09.035Z,14.00
2018-03-06T02:33:09.050Z,13.50
2018-03-06T02:34:09.072Z,13.70
2018-03-06T02:35:09.088Z,14.50
2018-03-06T02:36:09.102Z,13.90
2018-03-06T02:37:09.119Z,13.50
2018-03-06T02:38:09.136Z,14.00
2018-03-06T02:39:09.148Z,13.60
2018-03-06T02:40:09.234Z,13.90
2018-03-06T02:41:09.178Z,14.40
2018-03-06T02:42:09.199Z,13.40
2018-03-06T02:43:09.218Z,13.00
2018-03-06T02:44:09.228Z,13.50
2018-03-06T02:45:09.243Z,13.90
2018-03-06T02:46:09.262Z,13.40
2018-03-06T02:47:09.284Z,13.20
2018-03-06T02:48:09.292Z,14.20
2018-03-06T02:49:09.307Z,13.50
2018-03-06T02:50:09.323Z,13.90
2018-03-06T02:51:09.339Z,13.40
2018-03-06T02:52:09.355Z,13.60
2018-03-06T02:53:09.373Z,14.00
2018-03-06T02:54:09.388Z,14.40
2018-03-06T02:55:09.404Z,14.40
2018-03-06T02:56:09.419Z,14.10
2018-03-06T02:57:09.445Z,14.50
2018-03-06T02:58:09.454Z,14.40
2018-03-06T02:59:09.474Z,13.90
2018-03-06T03:00:09.488Z,13.80
2018-03-06T03:01:09.503Z,13.80
2018-03-06T03:02:09.518Z,14.00
2018-03-06T03:03:09.532Z,14.00
2018-03-06T03:04:09.547Z,14.30
2018-03-06T03:05:09.565Z,14.20
2018-03-06T03:06:09.580Z,14.10
2018-03-06T05:05:40.631Z,13.70
2018-03-06T05:06:40.606Z,19.50
2018-03-06T05:08:33.542Z,21.70
2018-03-06T05:09:33.521Z,22.80
2018-03-06T05:11:26.438Z,23.10
2018-03-06T05:12:26.442Z,23.30
2018-03-06T05:14:19.377Z,22.80
2018-03-06T05:15:19.361Z,23.20
2018-03-06T05:17:12.272Z,22.60
2018-03-06T05:18:12.278Z,22.30
2018-03-06T05:20:05.225Z,22.50
2018-03-06T05:21:05.215Z,22.70
2018-03-06T05:22:58.128Z,21.70
2018-03-06T05:23:58.135Z,22.50
2018-03-06T05:25:51.080Z,21.40
2018-03-06T05:26:51.134Z,22.20
2018-03-06T05:28:44.010Z,20.80
2018-03-06T05:29:44.002Z,22.10
2018-03-06T05:31:36.926Z,21.60
2018-03-06T05:32:36.938Z,21.10
2018-03-06T05:34:29.876Z,22.50
2018-03-06T05:35:29.866Z,21.80
2018-03-06T05:37:23.291Z,22.50
2018-03-06T05:38:23.306Z,22.20
2018-03-06T05:40:16.247Z,22.00
2018-03-06T05:41:16.237Z,21.60
2018-03-06T05:43:09.176Z,22.50
2018-03-06T05:44:09.169Z,22.00
2018-03-06T05:46:02.113Z,21.90
2018-03-06T05:47:02.103Z,22.80
2018-03-06T05:48:55.045Z,21.50
2018-03-06T05:49:55.035Z,21.90
2018-03-06T05:51:47.961Z,21.40
2018-03-06T05:52:47.970Z,22.10
2018-03-06T05:54:40.918Z,22.90
2018-03-06T05:55:40.912Z,22.50
2018-03-06T05:57:33.835Z,21.50
2018-03-06T05:58:33.845Z,22.00
2018-03-06T06:00:26.791Z,21.70
2018-03-06T06:01:26.777Z,22.50
2018-03-06T06:03:19.705Z,21.90
2018-03-06T06:04:19.712Z,21.00
2018-03-06T06:06:12.654Z,21.30
2018-03-06T06:07:12.639Z,21.40
2018-03-06T06:09:05.602Z,22.40
2018-03-06T06:10:05.576Z,21.90
2018-03-06T06:11:58.503Z,22.30
2018-03-06T06:12:58.513Z,22.60
2018-03-06T06:14:52.452Z,21.90
2018-03-06T06:15:52.436Z,21.90
2018-03-06T06:17:45.367Z,22.30
2018-03-06T06:18:45.381Z,21.90
2018-03-06T06:20:38.329Z,22.00
2018-03-06T06:21:38.319Z,22.00
2018-03-06T06:23:31.257Z,22.00
2018-03-06T06:24:31.313Z,22.10
2018-03-06T06:26:24.210Z,22.10
2018-03-06T06:27:24.201Z,23.00
2018-03-06T06:29:17.148Z,23.20
2018-03-06T06:30:17.139Z,22.40
2018-03-06T06:32:10.089Z,22.70
2018-03-06T06:33:10.095Z,22.30
2018-03-06T06:35:03.049Z,22.50
2018-03-06T06:36:03.039Z,22.00
2018-03-06T06:37:55.961Z,23.40
2018-03-06T06:38:55.969Z,22.90
2018-03-06T06:40:48.934Z,23.40
2018-03-06T06:41:48.921Z,22.40
2018-03-06T06:43:41.856Z,22.50
2018-03-06T06:44:41.881Z,23.30
2018-03-06T06:46:34.811Z,22.60
2018-03-06T06:47:34.799Z,22.50
2018-03-06T06:49:27.770Z,22.80
2018-03-06T06:50:27.743Z,24.10
2018-03-06T06:52:20.701Z,23.30
2018-03-06T06:53:20.682Z,23.20
2018-03-06T06:55:13.627Z,23.70
2018-03-06T06:56:13.623Z,22.80
2018-03-06T06:57:13.634Z,23.10
2018-03-06T06:58:13.650Z,23.50
2018-03-06T06:59:13.670Z,22.60
2018-03-06T07:00:13.681Z,22.40
2018-03-06T07:01:13.704Z,23.90
2018-03-06T07:02:13.716Z,24.10
2018-03-06T07:03:13.733Z,23.70
2018-03-06T07:04:13.749Z,24.10
2018-03-06T07:05:13.767Z,24.10
2018-03-06T07:06:13.785Z,23.20
2018-03-06T07:07:13.802Z,23.00
2018-03-06T07:08:13.816Z,22.80
2018-03-06T07:09:13.834Z,23.00
2018-03-06T07:10:13.851Z,23.30
2018-03-06T07:11:13.890Z,23.80
2018-03-06T07:12:13.921Z,22.20
2018-03-06T07:13:13.941Z,23.20
2018-03-06T07:14:13.926Z,23.20
2018-03-06T07:15:13.960Z,23.00
2018-03-06T07:16:13.949Z,22.10
2018-03-06T07:17:13.962Z,22.60
2018-03-06T07:18:14.003Z,23.10
2018-03-06T07:19:14.009Z,23.40
2018-03-06T07:20:14.037Z,23.70
2018-03-06T07:21:14.064Z,23.10
2018-03-06T07:22:14.089Z,22.30
2018-03-06T07:23:14.076Z,22.90
2018-03-06T07:24:14.146Z,22.90
2018-03-06T07:25:14.121Z,23.30
2018-03-06T07:26:14.182Z,22.00
2018-03-06T07:27:14.152Z,22.80
2018-03-06T07:28:14.153Z,22.90
2018-03-06T07:29:14.177Z,22.60
2018-03-06T07:30:14.192Z,24.10
2018-03-06T07:31:14.204Z,23.00
2018-03-06T07:32:14.219Z,22.30
2018-03-06T07:33:14.246Z,22.90
2018-03-06T07:34:14.253Z,22.80
2018-03-06T07:35:14.266Z,23.00
2018-03-06T07:36:14.459Z,23.40
2018-03-06T07:37:14.302Z,22.30
2018-03-06T07:38:14.328Z,23.30
2018-03-06T07:39:14.345Z,23.30
2018-03-06T07:40:14.360Z,22.60
2018-03-06T07:41:14.372Z,22.90
2018-03-06T07:42:14.385Z,22.90
2018-03-06T07:43:14.408Z,23.30
2018-03-06T07:44:14.435Z,22.10
2018-03-06T07:45:14.443Z,22.70
2018-03-06T07:46:14.455Z,22.20
2018-03-06T07:47:14.483Z,23.30
2018-03-06T07:48:14.491Z,22.40
2018-03-06T07:49:14.508Z,22.60
2018-03-06T07:50:14.532Z,22.50
2018-03-06T07:51:14.546Z,23.10
2018-03-06T07:52:14.566Z,22.80
2018-03-06T07:53:14.582Z,23.40
2018-03-06T07:54:14.596Z,22.40
2018-03-06T07:55:14.617Z,22.90
2018-03-06T07:56:14.631Z,22.60
2018-03-06T07:57:14.662Z,23.30
2018-03-06T07:58:14.666Z,22.60
2018-03-06T07:59:14.685Z,23.20
2018-03-06T08:00:14.701Z,23.00
2018-03-06T08:01:14.732Z,22.80
2018-03-06T08:02:14.745Z,23.00
2018-03-06T08:03:14.759Z,22.50
2018-03-06T08:04:14.776Z,22.00
2018-03-06T08:05:14.792Z,22.70
2018-03-06T08:06:14.823Z,22.60
2018-03-06T08:07:14.839Z,22.80
2018-03-06T08:08:14.846Z,23.20
2018-03-06T08:09:14.865Z,22.50
2018-03-06T08:10:14.879Z,22.70
2018-03-06T08:11:14.898Z,23.70
2018-03-06T08:12:14.919Z,22.80
2018-03-06T08:13:14.935Z,22.90
2018-03-06T08:14:14.955Z,23.60
2018-03-06T08:15:14.974Z,23.40
2018-03-06T08:16:14.984Z,23.40
2018-03-06T08:17:15.020Z,23.20
2018-03-06T08:18:15.581Z,23.80
2018-03-06T08:19:15.575Z,23.50
2018-03-06T08:20:15.061Z,24.00
2018-03-06T08:21:15.082Z,24.40
2018-03-06T08:22:15.098Z,23.70
2018-03-06T08:23:15.120Z,23.30
2018-03-06T08:24:15.125Z,23.90
2018-03-06T08:25:15.148Z,23.80
2018-03-06T08:26:15.169Z,24.50
2018-03-06T08:27:15.192Z,23.10
2018-03-06T08:28:15.202Z,23.60
2018-03-06T08:29:15.219Z,24.50
2018-03-06T08:30:15.300Z,24.40
2018-03-06T08:31:15.250Z,23.00
2018-03-06T08:32:15.280Z,24.00
2018-03-06T08:33:15.297Z,23.10
2018-03-06T08:34:15.305Z,23.40
2018-03-06T08:35:15.321Z,23.60
2018-03-06T08:36:15.354Z,24.10
2018-03-06T08:37:15.361Z,23.90
2018-03-06T08:38:15.400Z,23.60
2018-03-06T08:39:15.406Z,24.20
2018-03-06T08:40:15.441Z,24.30
2018-03-06T08:41:15.432Z,24.30
2018-03-06T08:42:15.458Z,24.10
2018-03-06T08:43:15.475Z,23.90
2018-03-06T08:44:15.498Z,24.00
2018-03-06T08:45:15.544Z,23.80
2018-03-06T08:46:15.532Z,25.20
2018-03-06T08:47:15.560Z,23.50
2018-03-06T08:48:15.720Z,23.80
2018-03-06T08:49:15.612Z,23.40
2018-03-06T08:50:15.617Z,23.90
2018-03-06T08:51:15.618Z,22.90
2018-03-06T08:52:15.656Z,23.70
2018-03-06T08:53:15.654Z,24.20
2018-03-06T08:54:15.720Z,24.00
2018-03-06T08:55:15.698Z,22.90
2018-03-06T08:56:15.731Z,22.50
2018-03-06T08:57:15.739Z,23.00
2018-03-06T08:58:15.753Z,22.10
2018-03-06T08:59:15.774Z,22.10
2018-03-06T09:00:15.794Z,21.90
2018-03-06T09:01:15.833Z,22.50
2018-03-06T09:02:15.834Z,22.40
2018-03-06T09:03:15.849Z,23.40
2018-03-06T09:04:15.872Z,22.70
2018-03-06T09:05:16.140Z,22.00
2018-03-06T09:06:15.920Z,23.40
2018-03-06T09:07:15.943Z,23.00
2018-03-06T09:08:15.945Z,21.80
2018-03-06T09:09:15.971Z,22.00
2018-03-06T09:10:15.988Z,21.00
2018-03-06T09:11:16.003Z,20.80
2018-03-06T09:12:16.027Z,21.50
2018-03-06T09:13:16.039Z,21.80
2018-03-06T09:14:16.057Z,21.20
2018-03-06T09:15:16.086Z,21.40
2018-03-06T09:16:16.117Z,21.50
2018-03-06T09:17:16.189Z,21.80
2018-03-06T09:18:16.143Z,21.50
2018-03-06T09:19:16.178Z,22.20
2018-03-06T09:20:16.246Z,21.60
2018-03-06T09:21:16.264Z,21.70
2018-03-06T09:22:16.397Z,22.20
2018-03-06T09:23:16.248Z,20.60
2018-03-06T09:24:16.305Z,21.20
2018-03-06T09:25:16.278Z,21.50
2018-03-06T09:26:16.302Z,20.60
2018-03-06T09:27:16.397Z,20.30
2018-03-06T09:28:16.522Z,19.90
2018-03-06T09:29:16.407Z,19.20
2018-03-06T09:30:16.390Z,19.40
2018-03-06T09:31:16.406Z,19.40
2018-03-06T09:32:16.432Z,19.60
2018-03-06T09:33:16.495Z,19.70
2018-03-06T09:34:16.509Z,18.70
2018-03-06T09:35:16.508Z,19.80
2018-03-06T09:36:17.288Z,20.40
2018-03-06T09:37:16.585Z,20.40
2018-03-06T09:38:16.763Z,20.40
2018-03-06T09:39:16.568Z,20.60
2018-03-06T09:40:16.765Z,20.50
2018-03-06T09:41:16.645Z,20.80
2018-03-06T09:42:16.656Z,20.30
2018-03-06T09:43:16.724Z,20.10
2018-03-06T09:44:16.843Z,20.40
2018-03-06T09:45:16.714Z,20.40
2018-03-06T09:46:16.804Z,20.10
2018-03-06T09:47:16.885Z,20.50
2018-03-06T09:48:16.798Z,19.90
2018-03-06T09:49:16.801Z,19.90
2018-03-06T09:50:17.189Z,19.10
2018-03-06T09:51:16.867Z,18.60
2018-03-06T09:52:16.905Z,18.60
2018-03-06T09:53:16.945Z,19.70
2018-03-06T09:54:16.932Z,19.20
2018-03-06T09:55:17.999Z,19.30
2018-03-06T09:56:16.928Z,19.50
2018-03-06T09:57:17.127Z,18.60
2018-03-06T09:58:17.012Z,19.00
2018-03-06T09:59:16.986Z,19.00
2018-03-06T10:00:17.005Z,18.90
2018-03-06T10:01:17.164Z,20.40
2018-03-06T10:02:17.052Z,18.50
2018-03-06T10:03:17.133Z,19.40
2018-03-06T10:04:17.092Z,19.50
2018-03-06T10:05:17.139Z,19.00
2018-03-06T10:06:17.199Z,19.10
2018-03-06T10:07:17.230Z,18.60
2018-03-06T10:08:17.172Z,19.20
2018-03-06T10:09:17.196Z,18.50
2018-03-06T10:10:17.276Z,18.10
2018-03-06T10:11:17.312Z,17.10
2018-03-06T10:12:17.331Z,17.40
2018-03-06T10:13:17.286Z,17.10
2018-03-06T10:14:17.425Z,16.90
2018-03-06T10:15:17.331Z,17.10
2018-03-06T10:16:17.420Z,16.60
2018-03-06T10:17:17.435Z,16.40
2018-03-06T10:18:17.404Z,16.20
2018-03-06T10:19:17.433Z,15.90
2018-03-06T10:20:17.501Z,15.40
2018-03-06T10:21:17.449Z,15.50
2018-03-06T10:22:17.558Z,16.10
2018-03-06T10:23:17.495Z,15.80
2018-03-06T10:24:17.530Z,16.30
2018-03-06T10:25:17.599Z,16.00
2018-03-06T10:26:17.581Z,15.40
2018-03-06T10:27:17.583Z,15.60
2018-03-06T10:28:17.606Z,16.90
2018-03-06T10:29:17.674Z,16.50
2018-03-06T10:30:17.660Z,16.00
2018-03-06T10:31:17.665Z,16.90
2018-03-06T10:32:17.691Z,16.20
2018-03-06T10:33:17.713Z,15.70
2018-03-06T10:34:17.749Z,16.70
2018-03-06T10:35:17.763Z,15.70
2018-03-06T10:36:17.771Z,15.40
2018-03-06T10:37:17.824Z,15.80
2018-03-06T10:38:17.813Z,15.50
2018-03-06T10:39:17.853Z,15.40
2018-03-06T10:40:17.862Z,15.70
2018-03-06T10:41:17.882Z,15.60
2018-03-06T10:42:17.899Z,15.60
2018-03-06T10:43:17.921Z,15.20
2018-03-06T10:44:17.948Z,15.60
2018-03-06T10:45:17.965Z,15.10
2018-03-06T10:46:17.996Z,15.60
2018-03-06T10:47:18.055Z,15.60
2018-03-06T10:48:18.039Z,15.10
2018-03-06T10:49:18.050Z,16.20
2018-03-06T10:50:18.082Z,15.20
2018-03-06T10:51:18.097Z,16.30
2018-03-06T10:52:18.122Z,15.60
2018-03-06T10:53:18.146Z,15.30
2018-03-06T10:54:18.168Z,14.10
2018-03-06T10:55:18.186Z,14.30
2018-03-06T10:56:18.220Z,15.10
2018-03-06T10:57:18.226Z,14.40
2018-03-06T10:58:18.312Z,14.50
2018-03-06T10:59:18.273Z,13.90
2018-03-06T11:00:18.308Z,14.30
2018-03-06T11:01:18.332Z,12.70
2018-03-06T11:02:18.337Z,12.80
2018-03-06T11:03:18.358Z,11.50
2018-03-06T11:04:18.392Z,11.80
2018-03-06T11:05:18.405Z,12.10
2018-03-06T11:06:18.467Z,12.90
2018-03-06T11:07:18.462Z,12.10
2018-03-06T11:08:18.585Z,12.40
2018-03-06T11:09:18.504Z,12.20
2018-03-06T11:10:18.527Z,11.70
2018-03-06T11:11:18.562Z,11.90
2018-03-06T11:12:18.574Z,12.00
2018-03-06T11:13:18.587Z,11.50
2018-03-06T11:14:18.740Z,12.30
2018-03-06T11:15:18.694Z,11.60
2018-03-06T11:16:18.654Z,11.90
2018-03-06T11:17:18.761Z,11.50
2018-03-06T11:18:18.702Z,11.80
2018-03-06T11:19:18.725Z,11.70
2018-03-06T11:20:18.781Z,12.10
2018-03-06T11:21:18.763Z,12.40
2018-03-06T11:22:18.785Z,12.60
2018-03-06T11:23:18.808Z,12.10
2018-03-06T11:24:18.856Z,12.30
2018-03-06T11:25:18.847Z,12.50
2018-03-06T11:26:18.871Z,12.20
2018-03-06T11:27:18.889Z,12.70
2018-03-06T11:28:18.921Z,12.80
2018-03-06T11:29:18.960Z,12.50
2018-03-06T11:30:18.970Z,12.90
2018-03-06T11:31:19.019Z,12.80
2018-03-06T11:32:19.028Z,13.20
2018-03-06T11:33:19.027Z,13.00
2018-03-06T11:34:19.049Z,12.50
2018-03-06T11:35:19.071Z,13.20
2018-03-06T11:36:19.101Z,11.90
2018-03-06T11:37:19.140Z,12.80
2018-03-06T11:38:19.172Z,12.70
2018-03-06T11:39:19.180Z,12.90
2018-03-06T11:40:19.332Z,13.00
2018-03-06T11:41:19.198Z,13.00
2018-03-06T11:42:19.252Z,13.10
2018-03-06T11:43:19.296Z,12.90
2018-03-06T11:44:19.292Z,13.10
2018-03-06T11:45:19.304Z,13.30
2018-03-06T11:46:19.311Z,12.80
2018-03-06T11:47:19.341Z,13.20
2018-03-06T11:48:19.362Z,13.20
2018-03-06T11:49:19.413Z,12.90
2018-03-06T11:50:19.424Z,13.60
2018-03-06T11:51:19.497Z,13.30
2018-03-06T11:52:19.450Z,13.70
2018-03-06T11:53:19.472Z,12.90
2018-03-06T11:54:19.490Z,13.40
2018-03-06T11:55:19.516Z,13.80
2018-03-06T11:56:19.567Z,14.10
2018-03-06T11:57:19.556Z,13.00
2018-03-06T11:58:19.635Z,13.30
2018-03-06T11:59:19.611Z,13.20
2018-03-06T12:00:19.624Z,13.70
2018-03-06T12:01:19.648Z,13.60
2018-03-06T12:02:19.670Z,13.50
2018-03-06T12:03:19.694Z,13.50
2018-03-06T12:04:19.725Z,13.80
2018-03-06T12:05:19.741Z,13.90
2018-03-06T12:06:19.807Z,13.60
2018-03-06T12:07:19.792Z,14.10
2018-03-06T12:08:19.805Z,14.30
2018-03-06T12:09:19.830Z,14.30
2018-03-06T12:11:19.938Z,13.70
2018-03-06T12:12:19.982Z,13.90
2018-03-06T12:13:19.924Z,13.80
2018-03-06T12:14:19.948Z,13.90
2018-03-06T12:15:19.967Z,13.90
2018-03-06T12:16:20.006Z,14.40
2018-03-06T12:17:41.090Z,14.30
2018-03-06T12:18:20.037Z,14.20
2018-03-06T12:19:20.261Z,14.10
2018-03-06T12:20:20.081Z,14.10
2018-03-06T12:21:20.110Z,14.10
2018-03-06T12:22:22.969Z,14.20
2018-03-06T12:23:41.182Z,13.50
2018-03-06T12:24:20.169Z,14.00
2018-03-06T12:25:20.237Z,13.50
2018-03-06T12:26:20.237Z,13.70
2018-03-06T12:27:20.240Z,13.70
2018-03-06T12:28:20.258Z,13.80
2018-03-06T12:29:41.329Z,13.50
2018-03-06T12:30:20.304Z,13.60
2018-03-06T12:31:20.335Z,13.70
2018-03-06T12:32:20.360Z,13.10
2018-03-06T12:33:20.387Z,12.70
2018-03-06T12:34:20.401Z,13.30
2018-03-06T12:35:41.437Z,13.00
2018-03-06T12:36:20.448Z,13.20
2018-03-06T12:37:20.464Z,14.10
2018-03-06T12:38:20.482Z,13.70
2018-03-06T12:39:20.522Z,13.70
2018-03-06T12:40:20.532Z,13.90
2018-03-06T12:41:41.583Z,13.60
2018-03-06T12:42:20.573Z,14.30
2018-03-06T12:43:20.901Z,13.90
2018-03-06T12:44:20.646Z,13.40
2018-03-06T12:45:20.689Z,13.60
2018-03-06T12:46:20.667Z,13.40
2018-03-06T12:47:41.773Z,13.60
2018-03-06T12:48:20.741Z,13.90
2018-03-06T12:49:20.780Z,13.60
2018-03-06T12:50:20.939Z,13.60
2018-03-06T12:51:20.790Z,13.20
2018-03-06T12:52:20.955Z,13.10
2018-03-06T12:53:41.872Z,14.20
2018-03-06T12:54:21.087Z,13.70
2018-03-06T12:55:20.898Z,13.50
2018-03-06T12:56:20.956Z,13.20
2018-03-06T12:57:20.931Z,13.80
2018-03-06T12:58:20.991Z,13.80
2018-03-06T12:59:41.985Z,13.40
2018-03-06T13:00:21.716Z,13.10
2018-03-06T13:01:21.041Z,13.80
2018-03-06T13:02:21.032Z,13.90
2018-03-06T13:03:21.959Z,13.60
2018-03-06T13:04:21.074Z,14.00
2018-03-06T13:05:42.124Z,13.00
2018-03-06T13:06:21.127Z,14.30
2018-03-06T13:07:21.155Z,14.30
2018-03-06T13:08:21.174Z,13.80
2018-03-06T13:09:21.192Z,14.30
2018-03-06T13:10:21.208Z,13.90
2018-03-06T13:11:42.254Z,14.20
2018-03-06T13:12:21.255Z,13.80
2018-03-06T13:13:21.277Z,14.00
2018-03-06T13:14:21.310Z,14.10
2018-03-06T13:15:21.323Z,13.80
2018-03-06T13:16:21.339Z,14.20
2018-03-06T13:17:42.385Z,14.00
2018-03-06T13:18:21.388Z,14.10
2018-03-06T13:19:21.410Z,14.10
2018-03-06T13:20:21.434Z,14.00
2018-03-06T13:21:21.456Z,14.20
2018-03-06T13:22:21.478Z,14.70
2018-03-06T13:23:42.520Z,14.00
2018-03-06T13:24:21.533Z,14.20
2018-03-06T13:25:21.593Z,14.40
2018-03-06T13:26:21.590Z,13.60
2018-03-06T13:27:21.590Z,13.70
2018-03-06T13:28:21.613Z,13.50
2018-03-06T13:29:42.686Z,14.30
2018-03-06T13:30:21.674Z,13.90
2018-03-06T13:31:21.698Z,14.60
2018-03-06T13:32:21.705Z,13.60
2018-03-06T13:33:21.762Z,14.20
2018-03-06T13:34:21.745Z,14.00
2018-03-06T13:35:42.786Z,14.40
2018-03-06T13:36:21.854Z,14.10
2018-03-06T13:37:21.816Z,13.50
2018-03-06T13:38:21.833Z,14.00
2018-03-06T13:39:21.891Z,13.80
2018-03-06T13:40:21.877Z,14.20
2018-03-06T13:41:42.913Z,14.00
2018-03-06T13:42:21.924Z,14.80
2018-03-06T13:43:21.965Z,14.10
2018-03-06T13:44:21.980Z,14.60
2018-03-06T13:45:21.987Z,13.70
2018-03-06T13:46:22.017Z,14.40
2018-03-06T13:47:43.062Z,14.50
2018-03-06T13:48:22.057Z,14.20
2018-03-06T13:49:22.084Z,14.30
2018-03-06T13:50:22.105Z,14.10
2018-03-06T13:51:22.121Z,14.60
2018-03-06T13:52:22.166Z,14.60
2018-03-06T13:53:43.193Z,14.20
2018-03-06T13:54:22.196Z,14.60
2018-03-06T13:55:22.218Z,13.70
2018-03-06T13:56:22.382Z,14.20
2018-03-06T13:57:22.264Z,14.40
2018-03-06T13:58:22.374Z,13.90
2018-03-06T13:59:43.335Z,14.10
2018-03-06T14:00:22.366Z,13.40
2018-03-06T14:01:22.341Z,14.50
2018-03-06T14:02:22.381Z,14.50
2018-03-06T14:03:22.462Z,14.60
2018-03-06T14:04:22.413Z,13.50
2018-03-06T14:05:43.461Z,14.10
2018-03-06T14:06:22.457Z,14.40
2018-03-06T14:07:22.480Z,14.00
2018-03-06T14:08:22.504Z,14.30
2018-03-06T14:09:22.524Z,14.00
2018-03-06T14:10:22.602Z,14.20
2018-03-06T14:11:43.590Z,12.90
2018-03-06T14:12:22.606Z,13.50
2018-03-06T14:13:22.618Z,13.00
2018-03-06T14:14:22.636Z,13.30
2018-03-06T14:15:22.659Z,13.90
2018-03-06T14:16:22.686Z,14.00
2018-03-06T14:17:43.723Z,14.30
2018-03-06T14:18:22.726Z,13.60
2018-03-06T14:19:22.756Z,13.90
2018-03-06T14:20:22.769Z,13.80
2018-03-06T14:21:22.804Z,13.80
2018-03-06T14:22:22.819Z,13.20
2018-03-06T14:23:43.872Z,13.80
2018-03-06T14:24:22.886Z,13.70
2018-03-06T14:25:22.887Z,13.80
2018-03-06T14:26:22.941Z,13.70
2018-03-06T14:27:22.925Z,14.40
2018-03-06T14:28:22.954Z,13.60
2018-03-06T14:29:43.992Z,14.10
2018-03-06T14:30:22.998Z,14.30
2018-03-06T14:31:23.014Z,13.90
2018-03-06T14:32:23.042Z,13.90
2018-03-06T14:33:23.066Z,14.00
2018-03-06T14:34:23.101Z,14.20
2018-03-06T14:35:44.123Z,14.10
2018-03-06T14:36:23.133Z,14.20
2018-03-06T14:37:23.158Z,14.00
2018-03-06T14:38:23.200Z,14.50
2018-03-06T14:39:23.208Z,13.80
2018-03-06T14:40:23.222Z,14.00
2018-03-06T14:41:44.295Z,13.90
2018-03-06T14:42:23.301Z,13.80
2018-03-06T14:43:23.317Z,14.10
2018-03-06T14:44:23.307Z,13.70
2018-03-06T14:45:23.329Z,13.80
2018-03-06T14:46:23.354Z,14.70
2018-03-06T14:47:44.437Z,13.90
2018-03-06T14:48:23.401Z,14.70
2018-03-06T14:49:23.425Z,14.30
2018-03-06T14:50:23.442Z,14.20
2018-03-06T14:51:23.544Z,14.40
2018-03-06T14:52:23.495Z,14.30
2018-03-06T14:53:44.534Z,14.00
2018-03-06T14:54:23.538Z,14.40
2018-03-06T14:55:23.562Z,14.10
2018-03-06T14:56:23.587Z,14.40
2018-03-06T14:57:23.614Z,14.10
2018-03-06T14:58:23.624Z,14.40
2018-03-06T14:59:44.669Z,14.70
2018-03-06T15:00:23.681Z,14.30
2018-03-06T15:01:23.689Z,14.00
2018-03-06T15:02:23.727Z,14.40
2018-03-06T15:03:23.739Z,14.10
2018-03-06T15:04:23.765Z,13.90
2018-03-06T15:05:44.797Z,13.80
2018-03-06T15:06:23.801Z,14.40
2018-03-06T15:07:23.836Z,14.30
2018-03-06T15:08:23.848Z,14.30
2018-03-06T15:09:23.872Z,14.40
2018-03-06T15:10:23.889Z,14.80
2018-03-06T15:11:44.933Z,14.70
2018-03-06T15:12:23.965Z,14.50
2018-03-06T15:13:23.960Z,14.20
2018-03-06T15:14:24.015Z,14.50
2018-03-06T15:15:24.006Z,15.10
2018-03-06T15:16:24.048Z,13.60
2018-03-06T15:17:45.062Z,13.60
2018-03-06T15:18:24.089Z,13.40
2018-03-06T15:19:24.107Z,13.80
2018-03-06T15:20:24.137Z,13.30
2018-03-06T15:21:24.140Z,13.40
2018-03-06T15:22:24.190Z,13.60
2018-03-06T15:23:45.202Z,13.40
2018-03-06T15:24:24.242Z,12.20
2018-03-06T15:25:24.236Z,12.30
2018-03-06T15:26:24.257Z,11.90
2018-03-06T15:27:24.261Z,11.70